createdAt,value
2023-04-19T02:18:46.976Z,100927.05
2023-04-19T02:33:38.256Z,100922.00
2023-04-19T02:48:29.615Z,100915.83
2023-04-19T03:03:21.679Z,100903.62
2023-04-19T03:18:14.321Z,100900.08
2023-04-19T03:33:05.605Z,100900.25
2023-04-19T03:47:57.360Z,100888.26
2023-04-19T04:02:48.319Z,100879.53
2023-04-19T04:17:39.505Z,100877.22
2023-04-19T04:32:31.310Z,100877.13
2023-04-19T04:47:22.216Z,100879.55
2023-04-19T05:02:13.154Z,100878.90
2023-04-19T05:17:07.075Z,100877.13
2023-04-19T05:31:55.955Z,100894.27
2023-04-19T05:46:45.589Z,100888.64
2023-04-19T06:01:37.045Z,100896.53
2023-04-19T06:16:28.722Z,100908.28
2023-04-19T06:31:20.020Z,100908.69
2023-04-19T06:46:12.108Z,100902.72
2023-04-19T07:01:04.831Z,100916.44
2023-04-19T07:33:25.932Z,100890.05
2023-04-19T07:35:50.776Z,100882.76
2023-04-19T08:05:03.903Z,100877.09
2023-04-19T08:49:47.581Z,100845.94
2023-04-19T09:04:39.249Z,100844.34
2023-04-19T09:19:30.631Z,100834.20
2023-04-19T09:34:22.223Z,100831.21
2023-04-19T09:49:23.131Z,100820.33
2023-04-19T10:04:19.881Z,100806.02
2023-04-19T10:18:57.456Z,100801.40
2023-04-19T10:33:49.576Z,100792.32
2023-04-19T10:48:40.493Z,100772.51
2023-04-19T11:03:45.068Z,100742.98
2023-04-19T11:18:39.903Z,100737.16
2023-04-19T11:33:33.682Z,100719.21
2023-04-19T11:48:26.979Z,100700.75
2023-04-19T12:03:26.555Z,100699.00
2023-04-19T12:18:19.069Z,100690.97
2023-04-19T12:33:09.954Z,100682.27
2023-04-19T12:48:02.121Z,100683.31
2023-04-19T13:02:53.862Z,100669.73
2023-04-19T13:17:46.348Z,100655.44
2023-04-19T13:32:37.650Z,100650.02
2023-04-19T13:47:29.760Z,100633.71
2023-04-19T14:02:21.160Z,100612.27
2023-04-19T14:17:12.645Z,100572.86
2023-04-19T14:32:17.163Z,100561.02
2023-04-19T14:46:59.032Z,100548.34
2023-04-19T15:01:51.973Z,100527.25
2023-04-19T15:16:53.740Z,100508.79
2023-04-19T15:31:43.087Z,100505.48
2023-04-19T15:46:34.571Z,100500.31
2023-04-19T16:01:23.375Z,100492.06
2023-04-19T16:16:15.080Z,100530.77
2023-04-19T16:31:00.208Z,100542.03
2023-04-19T16:45:50.729Z,100505.91
2023-04-19T17:00:44.661Z,100508.09
2023-04-19T18:00:15.024Z,100514.11
2023-04-19T18:15:07.137Z,100518.13
2023-04-19T18:44:54.372Z,100534.37
2023-04-19T19:14:54.281Z,100563.56
2023-04-19T19:29:42.490Z,100590.17
2023-04-19T21:29:13.524Z,100579.11
2023-04-19T21:44:04.822Z,100573.05
2023-04-19T21:58:56.213Z,100561.11
2023-04-19T22:13:48.230Z,100557.26
2023-04-19T22:28:39.529Z,100546.67
2023-04-19T22:43:32.084Z,100526.40
2023-04-19T22:58:22.453Z,100512.34
2023-04-19T23:13:13.647Z,100497.77
2023-04-19T23:28:05.799Z,100475.48
2023-04-19T23:42:56.256Z,100469.70
2023-04-19T23:57:47.176Z,100460.38
